createdAt,value
2022-12-22T00:01:42.325Z,6.15
2022-12-22T00:07:17.137Z,4.90
2022-12-22T00:10:02.556Z,8.85
2022-12-22T00:12:48.162Z,7.60
2022-12-22T00:15:35.695Z,6.03
2022-12-22T00:18:22.131Z,7.78
2022-12-22T00:21:07.565Z,4.50
2022-12-22T00:23:53.061Z,5.15
2022-12-22T00:26:38.677Z,4.40
2022-12-22T00:29:24.135Z,3.58
2022-12-22T00:32:09.675Z,3.58
2022-12-22T00:35:01.784Z,2.97
2022-12-22T00:37:54.426Z,2.75
2022-12-22T00:40:45.378Z,2.72
2022-12-22T00:43:31.332Z,3.30
2022-12-22T00:46:19.805Z,3.10
2022-12-22T00:49:05.670Z,2.88
2022-12-22T00:51:51.868Z,2.92
2022-12-22T00:54:38.635Z,3.00
2022-12-22T00:57:35.327Z,2.92
2022-12-22T01:00:20.679Z,3.08
2022-12-22T01:03:06.117Z,3.30
2022-12-22T01:05:51.384Z,4.03
2022-12-22T01:08:36.772Z,4.82
2022-12-22T01:11:22.229Z,3.13
2022-12-22T01:14:09.807Z,3.17
2022-12-22T01:16:55.215Z,2.70
2022-12-22T01:19:43.341Z,3.03
2022-12-22T01:22:34.284Z,2.53
2022-12-22T01:25:19.834Z,3.58
2022-12-22T01:28:05.401Z,3.13
2022-12-22T01:30:51.078Z,2.53
2022-12-22T01:33:36.274Z,2.75
2022-12-22T01:36:21.742Z,1.73
2022-12-22T01:39:07.288Z,2.10
2022-12-22T01:41:52.847Z,2.55
2022-12-22T01:44:38.272Z,2.35
2022-12-22T01:47:48.594Z,2.92
2022-12-22T01:50:36.622Z,2.17
2022-12-22T01:53:26.029Z,2.20
2022-12-22T01:56:12.572Z,1.92
2022-12-22T01:59:07.413Z,1.98
2022-12-22T02:01:53.814Z,1.95
2022-12-22T02:04:45.358Z,2.25
2022-12-22T02:07:37.405Z,2.80
2022-12-22T02:10:26.034Z,2.65
2022-12-22T02:13:30.060Z,2.45
2022-12-22T02:16:34.721Z,2.28
2022-12-22T02:19:50.893Z,2.53
2022-12-22T02:23:11.412Z,2.83
2022-12-22T02:26:21.886Z,2.85
2022-12-22T02:29:08.346Z,2.78
2022-12-22T02:31:58.850Z,3.20
2022-12-22T02:34:46.877Z,2.20
2022-12-22T02:37:48.129Z,2.28
2022-12-22T02:40:43.078Z,2.53
2022-12-22T02:43:56.169Z,5.13
2022-12-22T02:46:53.407Z,2.60
2022-12-22T02:49:44.024Z,2.45
2022-12-22T02:52:42.217Z,2.80
2022-12-22T02:55:28.384Z,2.72
2022-12-22T02:58:17.730Z,3.25
2022-12-22T03:01:06.218Z,3.13
2022-12-22T03:03:53.843Z,2.75
2022-12-22T03:06:41.744Z,2.40
2022-12-22T03:09:27.161Z,2.25
2022-12-22T03:12:12.820Z,1.60
2022-12-22T03:14:58.281Z,1.70
2022-12-22T03:17:43.946Z,2.78
2022-12-22T03:20:33.836Z,3.40
2022-12-22T03:23:24.949Z,3.55
2022-12-22T03:25:54.764Z,2.45
2022-12-22T03:28:24.758Z,3.42
2022-12-22T03:31:02.974Z,2.00
2022-12-22T03:33:32.967Z,2.15
2022-12-22T03:36:00.423Z,1.58
2022-12-22T03:38:27.256Z,1.08
2022-12-22T03:40:58.961Z,0.90
2022-12-22T03:43:45.338Z,1.40
2022-12-22T03:46:17.183Z,0.82
2022-12-22T03:49:10.256Z,1.02
2022-12-22T03:51:47.786Z,1.00
2022-12-22T03:54:18.197Z,0.80
2022-12-22T03:56:47.868Z,0.50
2022-12-22T03:59:18.426Z,0.50
2022-12-22T04:01:51.352Z,0.50
2022-12-22T04:04:23.394Z,0.50
2022-12-22T04:06:50.422Z,0.52
2022-12-22T04:09:17.323Z,0.30
2022-12-22T04:12:02.556Z,0.43
2022-12-22T04:14:34.496Z,0.40
2022-12-22T04:17:05.880Z,0.30
2022-12-22T04:19:33.200Z,0.30
2022-12-22T04:21:59.965Z,0.40
2022-12-22T04:24:26.787Z,0.38
2022-12-22T04:26:55.975Z,0.55
2022-12-22T04:29:22.808Z,0.30
2022-12-22T04:31:51.798Z,0.40
2022-12-22T04:34:18.585Z,0.20
2022-12-22T04:36:47.799Z,0.40
2022-12-22T04:39:16.731Z,0.50
2022-12-22T04:41:45.748Z,0.70
2022-12-22T04:44:14.948Z,0.40
2022-12-22T04:46:41.713Z,0.40
2022-12-22T04:49:08.460Z,0.60
2022-12-22T04:51:35.171Z,0.60
2022-12-22T04:54:01.905Z,0.88
2022-12-22T04:56:30.947Z,0.40
2022-12-22T04:58:59.931Z,0.60
2022-12-22T05:01:29.339Z,0.75
2022-12-22T05:03:56.158Z,0.93
2022-12-22T05:06:22.849Z,0.70
2022-12-22T05:08:49.746Z,0.80
2022-12-22T05:11:16.415Z,1.10
2022-12-22T05:13:43.179Z,1.17
2022-12-22T05:16:15.089Z,1.70
2022-12-22T05:18:43.461Z,2.30
2022-12-22T05:21:16.064Z,1.10
2022-12-22T05:23:44.620Z,1.08
2022-12-22T05:26:11.954Z,1.90
2022-12-22T05:28:38.700Z,0.90
2022-12-22T05:31:14.133Z,1.02
2022-12-22T05:33:45.698Z,1.05
2022-12-22T05:36:12.576Z,0.68
2022-12-22T05:38:40.360Z,0.77
2022-12-22T05:41:08.289Z,0.60
2022-12-22T05:43:35.319Z,0.70
2022-12-22T05:46:10.240Z,0.73
2022-12-22T05:48:40.457Z,0.80
2022-12-22T05:51:13.470Z,1.00
2022-12-22T05:53:42.819Z,0.70
2022-12-22T05:56:09.635Z,0.88
2022-12-22T05:58:38.527Z,1.35
2022-12-22T06:01:06.027Z,1.10
2022-12-22T06:03:37.219Z,0.70
2022-12-22T06:06:09.566Z,1.92
2022-12-22T06:08:38.966Z,1.83
2022-12-22T06:11:10.878Z,1.10
2022-12-22T06:13:40.008Z,0.90
2022-12-22T06:16:09.526Z,1.27
2022-12-22T06:18:36.272Z,1.30
2022-12-22T06:21:05.690Z,0.90
2022-12-22T06:23:32.387Z,0.95
2022-12-22T06:26:01.077Z,0.80
2022-12-22T06:28:28.943Z,1.20
2022-12-22T06:30:56.229Z,1.13
2022-12-22T06:33:23.067Z,0.88
2022-12-22T06:35:57.547Z,1.33
2022-12-22T06:38:26.522Z,1.50
2022-12-22T06:40:53.187Z,1.50
2022-12-22T06:43:22.396Z,1.40
2022-12-22T06:45:49.146Z,1.58
2022-12-22T06:48:18.045Z,2.30
2022-12-22T06:50:44.869Z,2.30
2022-12-22T06:53:14.385Z,3.88
2022-12-22T06:55:43.293Z,3.17
2022-12-22T06:58:14.726Z,2.72
2022-12-22T07:00:41.467Z,2.42
2022-12-22T07:03:10.796Z,2.30
2022-12-22T07:05:37.697Z,5.35
2022-12-22T07:08:09.083Z,2.20
2022-12-22T07:10:54.940Z,3.47
2022-12-22T07:13:27.927Z,3.45
2022-12-22T07:16:01.005Z,3.10
2022-12-22T07:18:33.213Z,2.92
2022-12-22T07:21:04.481Z,2.30
2022-12-22T07:23:33.865Z,1.77
2022-12-22T07:26:01.205Z,1.40
2022-12-22T07:28:28.456Z,2.03
2022-12-22T07:30:55.451Z,1.45
2022-12-22T07:33:22.284Z,2.22
2022-12-22T07:35:49.219Z,2.20
2022-12-22T07:38:16.002Z,1.38
2022-12-22T07:40:43.695Z,2.25
2022-12-22T07:43:12.530Z,1.45
2022-12-22T07:45:39.380Z,1.50
2022-12-22T07:48:26.285Z,1.52
2022-12-22T07:50:53.638Z,1.40
2022-12-22T07:53:20.342Z,1.08
2022-12-22T07:55:47.042Z,1.02
2022-12-22T07:58:13.705Z,1.40
2022-12-22T08:00:40.391Z,1.33
2022-12-22T08:03:07.136Z,1.50
2022-12-22T08:05:33.930Z,0.90
2022-12-22T08:08:03.464Z,1.38
2022-12-22T08:10:30.272Z,1.50
2022-12-22T08:12:59.407Z,1.58
2022-12-22T08:15:26.200Z,1.05
2022-12-22T08:17:52.887Z,1.58
2022-12-22T08:20:21.750Z,1.55
2022-12-22T08:22:50.575Z,1.10
2022-12-22T08:25:19.742Z,1.15
2022-12-22T08:27:53.402Z,1.20
2022-12-22T08:30:20.191Z,1.40
2022-12-22T08:32:49.787Z,1.25
2022-12-22T08:35:19.236Z,1.48
2022-12-22T08:37:47.492Z,1.42
2022-12-22T08:40:28.164Z,1.27
2022-12-22T08:42:59.274Z,1.77
2022-12-22T08:45:26.222Z,1.63
2022-12-22T08:47:52.985Z,1.10
2022-12-22T08:50:19.775Z,1.05
2022-12-22T08:52:46.480Z,1.60
2022-12-22T08:55:13.239Z,1.17
2022-12-22T08:57:40.046Z,1.45
2022-12-22T09:00:09.551Z,1.42
2022-12-22T09:02:36.882Z,1.30
2022-12-22T09:05:06.443Z,1.67
2022-12-22T09:07:33.263Z,2.05
2022-12-22T09:09:59.991Z,1.60
2022-12-22T09:12:29.283Z,1.45
2022-12-22T09:14:56.015Z,1.30
2022-12-22T09:17:22.758Z,1.50
2022-12-22T09:19:49.477Z,1.38
2022-12-22T09:22:25.047Z,1.60
2022-12-22T09:24:54.706Z,1.75
2022-12-22T09:27:21.404Z,1.40
2022-12-22T09:29:48.159Z,1.50
2022-12-22T09:32:14.996Z,3.10
2022-12-22T09:34:41.781Z,1.70
2022-12-22T09:37:08.615Z,2.20
2022-12-22T09:39:35.429Z,1.25
2022-12-22T09:42:04.647Z,1.20
2022-12-22T09:44:44.922Z,0.90
2022-12-22T09:47:35.910Z,0.95
2022-12-22T09:50:05.044Z,1.27
2022-12-22T09:52:34.712Z,1.30
2022-12-22T09:55:02.156Z,0.98
2022-12-22T09:57:34.500Z,1.20
2022-12-22T10:00:15.303Z,0.95
2022-12-22T10:03:07.620Z,1.42
2022-12-22T10:08:34.323Z,2.28
2022-12-22T10:11:01.129Z,2.10
2022-12-22T10:13:27.887Z,1.90
2022-12-22T10:15:57.662Z,1.48
2022-12-22T10:18:29.270Z,1.25
2022-12-22T10:21:14.018Z,1.73
2022-12-22T10:23:45.817Z,1.30
2022-12-22T10:26:29.683Z,1.25
2022-12-22T10:29:03.548Z,1.48
2022-12-22T10:31:35.575Z,1.60
2022-12-22T10:34:17.320Z,1.52
2022-12-22T10:36:52.031Z,1.52
2022-12-22T10:39:26.634Z,1.65
2022-12-22T10:41:56.958Z,1.27
2022-12-22T10:44:28.911Z,2.60
2022-12-22T10:52:20.162Z,1.70
2022-12-22T10:54:50.828Z,1.15
2022-12-22T10:57:20.262Z,0.98
2022-12-22T10:59:57.155Z,1.13
2022-12-22T11:02:23.906Z,1.40
2022-12-22T11:04:51.980Z,1.60
2022-12-22T11:07:19.413Z,1.60
2022-12-22T11:09:48.750Z,1.55
2022-12-22T11:12:33.090Z,1.52
2022-12-22T11:15:09.507Z,1.27
2022-12-22T11:17:49.389Z,1.60
2022-12-22T11:20:34.903Z,1.55
2022-12-22T11:23:38.926Z,1.90
2022-12-22T11:26:16.547Z,1.75
2022-12-22T11:29:11.473Z,1.15
2022-12-22T11:32:06.969Z,1.02
2022-12-22T11:34:55.160Z,1.52
2022-12-22T11:37:40.649Z,1.20
2022-12-22T11:40:31.301Z,1.85
2022-12-22T11:43:16.836Z,1.40
2022-12-22T11:45:57.980Z,1.55
2022-12-22T11:49:01.067Z,2.85
2022-12-22T11:51:33.389Z,2.95
2022-12-22T11:54:12.296Z,1.38
2022-12-22T11:56:42.825Z,2.33
2022-12-22T11:59:40.581Z,2.50
2022-12-22T12:02:40.927Z,1.50
2022-12-22T12:05:26.443Z,2.40
2022-12-22T12:07:59.114Z,1.70
2022-12-22T12:10:29.097Z,2.00
2022-12-22T12:13:06.210Z,2.63
2022-12-22T12:16:27.184Z,1.83
2022-12-22T12:19:31.994Z,2.10
2022-12-22T12:22:10.960Z,2.80
2022-12-22T12:25:13.913Z,0.95
2022-12-22T12:28:22.563Z,1.45
2022-12-22T12:30:59.622Z,1.23
2022-12-22T12:33:48.012Z,1.20
2022-12-22T12:36:30.085Z,1.00
2022-12-22T12:39:21.560Z,1.17
2022-12-22T12:41:56.221Z,1.90
2022-12-22T12:44:31.353Z,1.30
2022-12-22T12:47:07.317Z,1.38
2022-12-22T12:49:34.134Z,1.17
2022-12-22T12:52:05.541Z,1.13
2022-12-22T12:54:34.666Z,1.00
2022-12-22T12:57:09.650Z,1.10
2022-12-22T12:59:42.572Z,1.20
2022-12-22T13:02:27.976Z,1.00
2022-12-22T13:05:01.053Z,1.17
2022-12-22T13:08:05.346Z,1.35
2022-12-22T13:10:34.420Z,1.55
2022-12-22T13:13:01.169Z,1.70
2022-12-22T13:15:38.128Z,1.27
2022-12-22T13:18:29.674Z,0.95
2022-12-22T13:21:18.587Z,1.02
2022-12-22T13:24:14.990Z,1.02
2022-12-22T13:26:42.515Z,1.25
2022-12-22T13:29:31.890Z,1.05
2022-12-22T13:32:14.238Z,0.80
2022-12-22T13:37:49.765Z,0.70
2022-12-22T13:40:21.289Z,1.00
2022-12-22T13:42:51.695Z,1.10
2022-12-22T13:45:28.548Z,1.05
2022-12-22T13:47:55.824Z,0.77
2022-12-22T13:50:27.269Z,0.90
2022-12-22T13:52:57.273Z,1.70
2022-12-22T13:55:27.502Z,1.00
2022-12-22T13:58:18.914Z,1.55
2022-12-22T14:01:13.272Z,0.77
2022-12-22T14:04:00.424Z,1.88
2022-12-22T14:06:37.948Z,2.88
2022-12-22T14:09:16.845Z,1.10
2022-12-22T14:11:53.361Z,1.00
2022-12-22T14:14:26.171Z,0.90
2022-12-22T14:17:00.050Z,1.70
2022-12-22T14:19:32.837Z,1.73
2022-12-22T14:22:15.264Z,1.23
2022-12-22T14:24:49.046Z,2.42
2022-12-22T14:27:42.217Z,2.88
2022-12-22T14:30:23.890Z,1.75
2022-12-22T14:32:55.874Z,2.05
2022-12-22T14:35:23.012Z,1.30
2022-12-22T14:37:54.721Z,1.90
2022-12-22T14:40:36.908Z,1.40
2022-12-22T14:45:32.550Z,2.33
2022-12-22T14:47:59.380Z,1.30
2022-12-22T14:50:28.189Z,1.48
2022-12-22T14:52:57.161Z,1.63
2022-12-22T14:55:36.596Z,1.30
2022-12-22T14:58:07.945Z,1.25
2022-12-22T15:00:42.623Z,2.13
2022-12-22T15:03:31.356Z,1.90
2022-12-22T15:06:26.919Z,1.30
2022-12-22T15:09:07.531Z,1.58
2022-12-22T15:11:39.081Z,1.67
2022-12-22T15:14:09.546Z,1.25
2022-12-22T15:16:36.307Z,1.65
2022-12-22T15:19:07.484Z,1.20
2022-12-22T15:21:37.742Z,2.33
2022-12-22T15:24:15.374Z,1.10
2022-12-22T15:26:43.395Z,1.50
2022-12-22T15:29:10.245Z,2.35
2022-12-22T15:31:39.132Z,1.73
2022-12-22T15:34:19.158Z,1.60
2022-12-22T15:36:48.088Z,2.08
2022-12-22T15:39:18.935Z,4.88
2022-12-22T15:41:47.261Z,2.42
2022-12-22T15:44:14.083Z,1.90
2022-12-22T15:46:43.041Z,1.85
2022-12-22T15:49:19.755Z,2.00
2022-12-22T15:51:51.704Z,2.13
2022-12-22T15:56:46.312Z,1.60
2022-12-22T15:59:20.980Z,3.50
2022-12-22T16:01:47.717Z,1.75
2022-12-22T16:04:14.443Z,1.73
2022-12-22T16:06:43.579Z,2.15
2022-12-22T16:09:24.051Z,1.63
2022-12-22T16:11:51.150Z,2.03
2022-12-22T16:14:20.647Z,1.83
2022-12-22T16:16:52.227Z,1.38
2022-12-22T16:19:21.943Z,1.50
2022-12-22T16:21:52.792Z,1.67
2022-12-22T16:24:33.127Z,1.60
2022-12-22T16:27:01.250Z,1.40
2022-12-22T16:29:28.313Z,1.77
2022-12-22T16:32:22.784Z,1.70
2022-12-22T16:34:52.082Z,2.35
2022-12-22T16:37:18.789Z,1.95
2022-12-22T16:39:49.294Z,3.40
2022-12-22T16:45:06.791Z,2.60
2022-12-22T16:47:36.115Z,2.83
2022-12-22T16:50:05.388Z,1.83
2022-12-22T16:52:40.889Z,1.80
2022-12-22T16:55:24.916Z,2.33
2022-12-22T16:57:51.611Z,2.50
2022-12-22T17:00:23.825Z,2.95
2022-12-22T17:03:15.355Z,3.03
2022-12-22T17:05:59.102Z,2.38
2022-12-22T17:08:36.026Z,2.42
2022-12-22T17:11:10.436Z,2.05
2022-12-22T17:13:39.254Z,2.60
2022-12-22T17:16:06.336Z,2.83
2022-12-22T17:18:34.267Z,2.80
2022-12-22T17:21:01.164Z,1.95
2022-12-22T17:23:48.395Z,2.90
2022-12-22T17:26:18.014Z,2.92
2022-12-22T17:28:47.940Z,2.33
2022-12-22T17:31:17.298Z,2.92
2022-12-22T17:33:44.171Z,3.13
2022-12-22T17:36:40.126Z,3.25
2022-12-22T17:39:17.535Z,2.78
2022-12-22T17:41:46.826Z,3.63
2022-12-22T17:44:22.142Z,5.20
2022-12-22T17:46:52.308Z,4.28
2022-12-22T17:49:22.026Z,3.67
2022-12-22T17:51:49.230Z,4.15
2022-12-22T17:54:24.001Z,4.40
2022-12-22T17:56:51.208Z,4.28
2022-12-22T17:59:17.912Z,3.50
2022-12-22T18:01:44.773Z,2.78
2022-12-22T18:04:13.933Z,3.40
2022-12-22T18:06:42.551Z,3.45
2022-12-22T18:09:19.372Z,2.80
2022-12-22T18:11:48.952Z,2.90
2022-12-22T18:14:18.408Z,2.53
2022-12-22T18:16:50.679Z,3.00
2022-12-22T18:19:17.611Z,4.38
2022-12-22T18:21:44.878Z,3.55
2022-12-22T18:24:20.616Z,3.35
2022-12-22T18:26:47.640Z,4.15
2022-12-22T18:29:18.469Z,4.45
2022-12-22T18:31:45.386Z,4.07
2022-12-22T18:34:12.676Z,3.63
2022-12-22T18:36:42.198Z,7.28
2022-12-22T18:39:18.763Z,5.10
2022-12-22T18:41:48.465Z,3.83
2022-12-22T18:44:19.234Z,6.85
2022-12-22T18:46:50.889Z,5.43
2022-12-22T18:49:18.311Z,2.45
2022-12-22T18:51:45.856Z,2.42
2022-12-22T18:54:36.755Z,5.35
2022-12-22T18:57:03.624Z,4.57
2022-12-22T18:59:31.248Z,5.28
2022-12-22T19:02:13.558Z,4.75
2022-12-22T19:04:43.630Z,6.28
2022-12-22T19:07:16.621Z,5.85
2022-12-22T19:09:43.939Z,5.88
2022-12-22T19:12:14.348Z,3.97
2022-12-22T19:14:47.359Z,2.95
2022-12-22T19:17:24.037Z,3.72
2022-12-22T19:19:52.716Z,3.70
2022-12-22T19:22:20.716Z,6.10
2022-12-22T19:24:51.719Z,11.20
2022-12-22T19:27:29.255Z,13.20
2022-12-22T19:30:04.145Z,9.23
2022-12-22T19:32:46.457Z,4.03
2022-12-22T19:35:18.573Z,4.45
2022-12-22T19:40:22.233Z,3.40
2022-12-22T19:42:53.279Z,5.57
2022-12-22T19:45:35.320Z,3.65
2022-12-22T19:48:03.992Z,3.20
2022-12-22T19:50:32.038Z,3.70
2022-12-22T19:53:02.140Z,3.03
2022-12-22T19:55:40.103Z,4.47
2022-12-22T19:58:17.394Z,3.72
2022-12-22T20:00:47.498Z,3.42
2022-12-22T20:03:19.184Z,3.78
2022-12-22T20:05:46.272Z,3.35
2022-12-22T20:08:15.922Z,2.60
2022-12-22T20:10:43.296Z,2.78
2022-12-22T20:13:23.404Z,3.70
2022-12-22T20:15:53.596Z,4.38
2022-12-22T20:18:22.166Z,5.35
2022-12-22T20:21:41.458Z,2.72
2022-12-22T20:24:09.408Z,5.88
2022-12-22T20:26:36.318Z,3.63
2022-12-22T20:29:03.061Z,8.85
2022-12-22T20:31:35.009Z,8.23
2022-12-22T20:36:39.430Z,7.00
2022-12-22T20:39:16.380Z,6.43
2022-12-22T20:41:47.094Z,7.70
2022-12-22T20:44:17.532Z,5.15
2022-12-22T20:46:44.506Z,3.25
2022-12-22T20:49:15.619Z,2.95
2022-12-22T20:51:42.782Z,6.13
2022-12-22T20:54:13.763Z,5.82
2022-12-22T20:56:41.096Z,6.93
2022-12-22T20:59:24.076Z,8.23
2022-12-22T21:01:52.494Z,6.65
2022-12-22T21:04:43.539Z,6.50
2022-12-22T21:07:12.689Z,6.97
2022-12-22T21:12:23.452Z,7.93
2022-12-22T21:14:53.416Z,8.95
2022-12-22T21:17:26.434Z,9.30
2022-12-22T21:19:55.999Z,6.90
2022-12-22T21:22:22.694Z,5.85
2022-12-22T21:24:49.886Z,7.25
2022-12-22T21:27:20.295Z,5.25
2022-12-22T21:29:50.126Z,5.35
2022-12-22T21:32:16.933Z,3.95
2022-12-22T21:34:43.656Z,4.07
2022-12-22T21:37:19.694Z,4.05
2022-12-22T21:39:51.174Z,3.50
2022-12-22T21:42:21.068Z,3.83
2022-12-22T21:44:52.592Z,3.25
2022-12-22T21:47:20.724Z,2.92
2022-12-22T21:49:47.480Z,2.60
2022-12-22T21:52:16.650Z,3.00
2022-12-22T21:54:45.711Z,3.90
2022-12-22T21:57:17.771Z,3.80
2022-12-22T21:59:44.568Z,2.70
2022-12-22T22:02:16.211Z,2.90
2022-12-22T22:04:53.771Z,2.50
2022-12-22T22:07:21.472Z,2.58
2022-12-22T22:09:52.824Z,2.83
2022-12-22T22:12:36.800Z,3.50
2022-12-22T22:15:07.996Z,2.55
2022-12-22T22:17:37.360Z,2.47
2022-12-22T22:20:08.752Z,2.35
2022-12-22T22:22:35.725Z,1.77
2022-12-22T22:25:02.685Z,2.20
2022-12-22T22:27:29.392Z,2.15
2022-12-22T22:29:58.394Z,2.60
2022-12-22T22:32:27.762Z,2.67
2022-12-22T22:34:54.468Z,2.72
2022-12-22T22:37:21.297Z,2.35
2022-12-22T22:39:48.114Z,2.53
2022-12-22T22:42:14.868Z,3.83
2022-12-22T22:44:41.826Z,3.08
2022-12-22T22:47:10.759Z,2.15
2022-12-22T22:49:37.561Z,3.22
2022-12-22T22:52:04.456Z,3.53
2022-12-22T22:54:33.576Z,3.20
2022-12-22T22:57:03.491Z,2.75
2022-12-22T22:59:32.710Z,2.50
2022-12-22T23:01:59.695Z,3.15
2022-12-22T23:04:26.596Z,3.72
2022-12-22T23:06:55.468Z,2.70
2022-12-22T23:09:24.362Z,2.45
2022-12-22T23:11:52.514Z,2.80
2022-12-22T23:14:24.496Z,3.70
2022-12-22T23:19:19.211Z,4.78
2022-12-22T23:21:46.103Z,5.50
2022-12-22T23:24:16.518Z,4.57
2022-12-22T23:26:43.271Z,2.10
2022-12-22T23:29:10.038Z,2.40
2022-12-22T23:31:39.028Z,2.67
2022-12-22T23:34:07.997Z,3.85
2022-12-22T23:36:34.721Z,2.55
2022-12-22T23:39:01.548Z,2.00
2022-12-22T23:41:30.761Z,2.10
2022-12-22T23:44:00.051Z,2.22
2022-12-22T23:46:31.565Z,1.85
2022-12-22T23:49:01.352Z,2.25
2022-12-22T23:51:29.175Z,1.83
2022-12-22T23:53:58.567Z,2.30
2022-12-22T23:56:25.661Z,2.00
2022-12-22T23:58:54.819Z,1.75
